Time;durP1;ratioP1;P1;durP2;ratioP2;P2;SDS_P1;SDS_P2;PMS_P1;PMS_P2;Temp;Humidity;BMP_temperature;BMP_pressure;BME280_temperature;BME280_humidity;BME280_pressure;Samples;Min_cycle;Max_cycle;Signal;HPM_P1;HPM_P2
2024/01/10 00:01:28;;;;;;;5.28;3.60;;;;;;;;;;4977935;28;25053;-64
2024/01/10 00:03:54;;;;;;;9.88;3.20;;;;;;;;;;4987101;28;25081;-63
2024/01/10 00:06:20;;;;;;;6.20;2.65;;;;;;;;;;4968039;28;25061;-65
2024/01/10 00:08:46;;;;;;;4.35;2.67;;;;;;;;;;4971280;28;25058;-65
2024/01/10 00:11:12;;;;;;;5.55;2.83;;;;;;;;;;4970979;28;25068;-64
2024/01/10 00:13:38;;;;;;;4.95;3.50;;;;;;;;;;4969674;28;25069;-63
2024/01/10 00:16:04;;;;;;;5.13;3.42;;;;;;;;;;4967641;28;25118;-65
2024/01/10 00:18:30;;;;;;;6.25;3.30;;;;;;;;;;4965878;28;25088;-64
2024/01/10 00:20:56;;;;;;;6.43;3.10;;;;;;;;;;4987025;28;25158;-63
2024/01/10 00:23:22;;;;;;;5.70;3.00;;;;;;;;;;4976775;28;25094;-64
2024/01/10 00:25:49;;;;;;;7.25;3.58;;;;;;;;;;4969716;28;25080;-63
2024/01/10 00:28:18;;;;;;;5.22;2.58;;;;;;;;;;4966989;28;25077;-64
2024/01/10 00:30:45;;;;;;;6.10;2.80;;;;;;;;;;4968273;28;25140;-64
2024/01/10 00:33:14;;;;;;;8.82;3.50;;;;;;;;;;4966190;28;25070;-64
2024/01/10 00:35:40;;;;;;;5.97;3.03;;;;;;;;;;4986422;28;25176;-67
2024/01/10 00:38:06;;;;;;;4.03;2.75;;;;;;;;;;4989432;28;25137;-64
2024/01/10 00:40:32;;;;;;;5.95;2.58;;;;;;;;;;4988354;28;25145;-65
2024/01/10 00:42:58;;;;;;;5.32;2.95;;;;;;;;;;4990403;28;25055;-64
2024/01/10 00:45:25;;;;;;;3.70;2.70;;;;;;;;;;4993460;28;25168;-64
2024/01/10 00:47:51;;;;;;;4.68;2.90;;;;;;;;;;4990902;28;25115;-65
2024/01/10 00:50:17;;;;;;;4.75;3.10;;;;;;;;;;4975842;28;25068;-62
2024/01/10 00:52:44;;;;;;;6.25;3.13;;;;;;;;;;4968047;28;25076;-63
2024/01/10 00:55:10;;;;;;;4.53;2.67;;;;;;;;;;4966374;28;25135;-65
2024/01/10 00:57:38;;;;;;;5.05;3.30;;;;;;;;;;4969117;28;25139;-62
2024/01/10 01:00:04;;;;;;;7.28;3.40;;;;;;;;;;4968723;28;25072;-62
2024/01/10 01:02:30;;;;;;;5.53;3.33;;;;;;;;;;4967682;28;25067;-64
2024/01/10 01:04:56;;;;;;;5.97;3.47;;;;;;;;;;4966980;28;25121;-63
2024/01/10 01:07:22;;;;;;;4.22;2.60;;;;;;;;;;4968251;28;25151;-64
2024/01/10 01:09:48;;;;;;;6.68;3.85;;;;;;;;;;4968732;28;25207;-65
2024/01/10 01:12:14;;;;;;;6.90;3.05;;;;;;;;;;4991672;28;25094;-65
2024/01/10 01:14:40;;;;;;;6.35;3.20;;;;;;;;;;4971038;28;25101;-64
2024/01/10 01:17:06;;;;;;;5.80;3.42;;;;;;;;;;4969407;28;25074;-65
2024/01/10 01:19:32;;;;;;;6.07;3.42;;;;;;;;;;4968158;28;25074;-64
2024/01/10 01:21:58;;;;;;;8.27;3.28;;;;;;;;;;4974213;28;25058;-63
2024/01/10 01:24:24;;;;;;;7.93;3.72;;;;;;;;;;4990119;28;25158;-66
2024/01/10 01:26:50;;;;;;;6.15;3.10;;;;;;;;;;4987160;28;25074;-64
2024/01/10 01:29:16;;;;;;;6.47;3.40;;;;;;;;;;4989698;28;25119;-64
2024/01/10 01:31:42;;;;;;;10.55;3.30;;;;;;;;;;4981703;28;25071;-64
2024/01/10 01:34:08;;;;;;;10.10;3.90;;;;;;;;;;4976307;28;25148;-63
2024/01/10 01:36:34;;;;;;;7.18;3.60;;;;;;;;;;4990889;28;25084;-64
2024/01/10 01:39:00;;;;;;;5.97;3.40;;;;;;;;;;4992420;28;25065;-64
2024/01/10 01:41:26;;;;;;;6.93;4.45;;;;;;;;;;4991605;28;25150;-64
2024/01/10 01:43:52;;;;;;;4.45;3.25;;;;;;;;;;4990457;28;25074;-66
2024/01/10 01:46:18;;;;;;;9.13;3.33;;;;;;;;;;4991074;28;25096;-63
2024/01/10 01:48:45;;;;;;;8.25;3.47;;;;;;;;;;4985475;28;25060;-63
2024/01/10 01:51:13;;;;;;;6.30;3.53;;;;;;;;;;4995020;28;25069;-66
2024/01/10 01:53:39;;;;;;;6.50;3.38;;;;;;;;;;4971389;28;25067;-64
2024/01/10 01:56:08;;;;;;;6.53;3.70;;;;;;;;;;4971704;28;25069;-64
2024/01/10 01:58:36;;;;;;;9.35;3.60;;;;;;;;;;4979414;28;25078;-65
2024/01/10 02:01:02;;;;;;;5.72;3.17;;;;;;;;;;4987294;28;25060;-64
2024/01/10 02:03:29;;;;;;;4.35;2.97;;;;;;;;;;4990944;28;25066;-65
2024/01/10 02:05:55;;;;;;;7.28;3.53;;;;;;;;;;4986069;28;25054;-63
2024/01/10 02:08:21;;;;;;;10.65;3.20;;;;;;;;;;4974429;28;25136;-65
2024/01/10 02:10:47;;;;;;;6.30;3.88;;;;;;;;;;4981422;28;25060;-64
2024/01/10 02:13:13;;;;;;;6.30;3.45;;;;;;;;;;4984462;28;25130;-64
2024/01/10 02:15:39;;;;;;;6.15;3.38;;;;;;;;;;4989065;28;25058;-64
2024/01/10 02:18:05;;;;;;;5.07;3.25;;;;;;;;;;4972990;28;25171;-65
2024/01/10 02:20:31;;;;;;;7.70;3.80;;;;;;;;;;4986173;28;25061;-65
2024/01/10 02:22:57;;;;;;;6.95;3.53;;;;;;;;;;4979625;28;25058;-64
2024/01/10 02:25:24;;;;;;;9.30;3.90;;;;;;;;;;4971948;28;25057;-66
2024/01/10 02:27:49;;;;;;;7.05;3.30;;;;;;;;;;4982589;28;25072;-65
2024/01/10 02:30:15;;;;;;;6.72;3.60;;;;;;;;;;4979587;28;25114;-65
2024/01/10 02:32:41;;;;;;;6.88;4.05;;;;;;;;;;4970639;28;25073;-63
2024/01/10 02:35:08;;;;;;;6.45;3.97;;;;;;;;;;4984137;28;25149;-64
2024/01/10 02:37:34;;;;;;;6.82;3.58;;;;;;;;;;4990268;28;25063;-64
2024/01/10 02:40:00;;;;;;;6.35;3.65;;;;;;;;;;4980433;28;25060;-66
2024/01/10 02:42:30;;;;;;;8.10;3.38;;;;;;;;;;4970385;28;25056;-63
2024/01/10 02:44:56;;;;;;;5.50;3.10;;;;;;;;;;4969248;28;25133;-65
2024/01/10 02:47:22;;;;;;;7.88;3.85;;;;;;;;;;4971273;28;25076;-65
2024/01/10 02:49:48;;;;;;;6.38;3.53;;;;;;;;;;4978474;28;25065;-64
2024/01/10 02:52:14;;;;;;;5.60;3.35;;;;;;;;;;4989285;28;25081;-65
2024/01/10 02:54:40;;;;;;;4.47;3.30;;;;;;;;;;4983619;28;25087;-66
2024/01/10 02:57:05;;;;;;;9.02;4.10;;;;;;;;;;4990038;28;25068;-66
2024/01/10 02:59:31;;;;;;;6.85;4.40;;;;;;;;;;4974601;28;25073;-64
2024/01/10 03:01:58;;;;;;;6.32;3.70;;;;;;;;;;4968936;28;25065;-66
2024/01/10 03:04:24;;;;;;;6.97;3.58;;;;;;;;;;4969785;28;25060;-63
2024/01/10 03:06:50;;;;;;;7.38;3.80;;;;;;;;;;4970515;28;25066;-63
2024/01/10 03:09:16;;;;;;;8.32;4.10;;;;;;;;;;4968630;28;25075;-65
2024/01/10 03:11:42;;;;;;;5.57;3.45;;;;;;;;;;4987741;28;25115;-63
2024/01/10 03:14:09;;;;;;;8.63;3.70;;;;;;;;;;4989784;28;25097;-64
2024/01/10 03:16:35;;;;;;;7.57;3.75;;;;;;;;;;4981694;28;25060;-65
2024/01/10 03:19:01;;;;;;;8.93;4.20;;;;;;;;;;4965755;28;25088;-67
2024/01/10 03:21:27;;;;;;;9.05;3.78;;;;;;;;;;4967487;28;25109;-62
2024/01/10 03:23:56;;;;;;;10.15;4.57;;;;;;;;;;4989419;28;25085;-65
2024/01/10 03:26:23;;;;;;;9.20;3.70;;;;;;;;;;4974425;28;25146;-63
2024/01/10 03:28:49;;;;;;;6.68;4.13;;;;;;;;;;4974198;28;25072;-65
2024/01/10 03:31:15;;;;;;;6.47;3.63;;;;;;;;;;4984424;28;25190;-63
2024/01/10 03:33:41;;;;;;;5.65;3.35;;;;;;;;;;4971076;28;25069;-63
2024/01/10 03:36:07;;;;;;;9.65;4.22;;;;;;;;;;4989077;28;25046;-63
2024/01/10 03:38:33;;;;;;;8.82;3.58;;;;;;;;;;4983290;28;25063;-66
2024/01/10 03:40:59;;;;;;;7.53;4.00;;;;;;;;;;4982433;28;25056;-63
2024/01/10 03:43:25;;;;;;;5.93;3.45;;;;;;;;;;4980264;28;25071;-65
2024/01/10 03:45:51;;;;;;;11.15;4.45;;;;;;;;;;4989835;28;25075;-62
2024/01/10 03:48:17;;;;;;;7.30;4.05;;;;;;;;;;4983371;28;25064;-64
2024/01/10 03:50:43;;;;;;;5.45;3.70;;;;;;;;;;4972994;28;25061;-65
2024/01/10 03:53:09;;;;;;;5.80;3.92;;;;;;;;;;4969804;28;25082;-64
2024/01/10 03:55:35;;;;;;;7.10;4.05;;;;;;;;;;4969871;28;25068;-63
2024/01/10 03:58:01;;;;;;;6.78;4.28;;;;;;;;;;4971228;28;25089;-65
2024/01/10 04:00:27;;;;;;;7.38;3.88;;;;;;;;;;4989375;28;25078;-63
2024/01/10 04:02:54;;;;;;;5.45;3.92;;;;;;;;;;4985954;28;25060;-67
2024/01/10 04:05:20;;;;;;;10.18;4.50;;;;;;;;;;4992011;28;25068;-64
2024/01/10 04:07:47;;;;;;;7.32;4.15;;;;;;;;;;4995542;28;25057;-63
2024/01/10 04:10:14;;;;;;;9.30;4.35;;;;;;;;;;4993716;28;25071;-64
2024/01/10 04:12:45;;;;;;;7.22;4.05;;;;;;;;;;4989208;28;25056;-66
2024/01/10 04:15:12;;;;;;;8.45;4.13;;;;;;;;;;4992675;28;25066;-67
2024/01/10 04:17:38;;;;;;;5.53;3.70;;;;;;;;;;4991190;28;25079;-66
2024/01/10 04:20:05;;;;;;;7.40;4.38;;;;;;;;;;4975862;28;25086;-65
2024/01/10 04:22:31;;;;;;;7.25;4.18;;;;;;;;;;4976780;28;25088;-65
2024/01/10 04:24:58;;;;;;;8.10;4.20;;;;;;;;;;4987819;28;25047;-65
2024/01/10 04:27:24;;;;;;;11.52;4.07;;;;;;;;;;4979233;28;25066;-64
2024/01/10 04:29:50;;;;;;;7.45;4.22;;;;;;;;;;4972536;28;25052;-64
2024/01/10 04:32:16;;;;;;;7.35;4.20;;;;;;;;;;4979908;28;25124;-66
2024/01/10 04:34:42;;;;;;;8.43;4.57;;;;;;;;;;4974313;28;25067;-64
2024/01/10 04:37:08;;;;;;;6.63;4.22;;;;;;;;;;4992220;28;25077;-64
2024/01/10 04:39:34;;;;;;;8.40;4.65;;;;;;;;;;4986200;28;25091;-64
2024/01/10 04:42:00;;;;;;;9.40;4.05;;;;;;;;;;4997849;28;25060;-65
2024/01/10 04:44:26;;;;;;;11.40;4.53;;;;;;;;;;4988810;28;25056;-66
2024/01/10 04:46:52;;;;;;;8.98;4.07;;;;;;;;;;5001729;28;25061;-66
2024/01/10 04:49:18;;;;;;;7.22;4.28;;;;;;;;;;4981107;28;25106;-65
2024/01/10 04:51:45;;;;;;;12.05;4.72;;;;;;;;;;4969444;28;25057;-63
2024/01/10 04:54:11;;;;;;;6.85;4.53;;;;;;;;;;4963414;28;25057;-65
2024/01/10 04:56:37;;;;;;;6.43;3.67;;;;;;;;;;4969950;28;25073;-64
2024/01/10 04:59:03;;;;;;;6.63;3.67;;;;;;;;;;4981551;28;25062;-65
2024/01/10 05:01:29;;;;;;;8.30;4.47;;;;;;;;;;4988343;28;25107;-67
2024/01/10 05:03:55;;;;;;;6.57;4.32;;;;;;;;;;4967666;28;25060;-63
2024/01/10 05:06:21;;;;;;;10.25;5.47;;;;;;;;;;4967656;28;25162;-63
2024/01/10 05:08:47;;;;;;;9.10;4.68;;;;;;;;;;4971923;28;25073;-65
2024/01/10 05:11:14;;;;;;;7.10;4.63;;;;;;;;;;4980169;28;25060;-64
2024/01/10 05:13:40;;;;;;;8.55;4.63;;;;;;;;;;4984851;28;25068;-67
2024/01/10 05:16:06;;;;;;;8.93;4.70;;;;;;;;;;4991961;28;25082;-65
2024/01/10 05:18:32;;;;;;;8.55;4.05;;;;;;;;;;4973637;28;25064;-64
2024/01/10 05:20:59;;;;;;;7.82;4.63;;;;;;;;;;4973539;28;25065;-64
2024/01/10 05:23:25;;;;;;;7.90;4.40;;;;;;;;;;4971684;28;25064;-66
2024/01/10 05:25:51;;;;;;;10.85;4.78;;;;;;;;;;4972604;28;25070;-62
2024/01/10 05:28:17;;;;;;;8.43;4.90;;;;;;;;;;4987425;28;25086;-64
2024/01/10 05:30:43;;;;;;;8.15;5.50;;;;;;;;;;5005318;28;25099;-66
2024/01/10 05:33:10;;;;;;;9.73;4.78;;;;;;;;;;4975094;28;25071;-64
2024/01/10 05:35:36;;;;;;;7.95;4.30;;;;;;;;;;4990157;28;25124;-63
2024/01/10 05:38:02;;;;;;;7.07;4.22;;;;;;;;;;4997986;28;25088;-62
2024/01/10 05:40:32;;;;;;;10.07;5.20;;;;;;;;;;4994150;28;25070;-64
2024/01/10 05:43:01;;;;;;;7.38;4.22;;;;;;;;;;4995047;28;25052;-63
2024/01/10 05:45:28;;;;;;;8.48;4.93;;;;;;;;;;4990442;28;25068;-63
2024/01/10 05:47:54;;;;;;;7.18;4.45;;;;;;;;;;4998862;28;25111;-64
2024/01/10 05:50:20;;;;;;;7.82;4.65;;;;;;;;;;4983638;28;25166;-63
2024/01/10 05:52:46;;;;;;;8.13;5.22;;;;;;;;;;4977431;28;25091;-65
2024/01/10 05:55:12;;;;;;;11.27;4.97;;;;;;;;;;4995639;28;25139;-65
2024/01/10 05:57:38;;;;;;;11.68;5.65;;;;;;;;;;4968671;28;25077;-66
2024/01/10 06:00:09;;;;;;;8.07;4.50;;;;;;;;;;4971240;28;25075;-65
2024/01/10 06:02:35;;;;;;;8.93;4.55;;;;;;;;;;4992489;28;25135;-64
2024/01/10 06:05:04;;;;;;;12.75;5.03;;;;;;;;;;4973468;28;25125;-64
2024/01/10 06:07:31;;;;;;;9.43;4.80;;;;;;;;;;4971306;28;25136;-62
2024/01/10 06:09:57;;;;;;;8.00;5.00;;;;;;;;;;4966275;28;25067;-63
2024/01/10 06:12:23;;;;;;;9.57;5.20;;;;;;;;;;4972227;28;25100;-61
2024/01/10 06:14:49;;;;;;;8.27;4.75;;;;;;;;;;4969134;28;25089;-63
2024/01/10 06:17:16;;;;;;;10.48;4.88;;;;;;;;;;4963321;28;25074;-63
2024/01/10 06:19:42;;;;;;;9.90;4.85;;;;;;;;;;4969343;28;25067;-62
2024/01/10 06:22:08;;;;;;;10.77;5.45;;;;;;;;;;4974215;28;25083;-63
2024/01/10 06:24:34;;;;;;;8.35;4.90;;;;;;;;;;4992084;28;25067;-64
2024/01/10 06:27:00;;;;;;;8.52;4.90;;;;;;;;;;4970731;28;25069;-64
2024/01/10 06:29:26;;;;;;;11.68;5.28;;;;;;;;;;4968190;28;25093;-63
2024/01/10 06:31:53;;;;;;;9.85;5.00;;;;;;;;;;4977401;28;25146;-66
2024/01/10 06:34:19;;;;;;;10.30;4.80;;;;;;;;;;4992361;28;25059;-63
2024/01/10 06:36:45;;;;;;;10.00;5.43;;;;;;;;;;4985241;28;25163;-63
2024/01/10 06:39:12;;;;;;;12.23;5.00;;;;;;;;;;4992544;28;25067;-63
2024/01/10 06:41:38;;;;;;;9.30;5.53;;;;;;;;;;4991444;28;25055;-62
2024/01/10 06:44:04;;;;;;;10.15;4.82;;;;;;;;;;4996746;28;25062;-63
2024/01/10 06:46:31;;;;;;;13.77;6.85;;;;;;;;;;4988697;28;25052;-64
2024/01/10 06:48:59;;;;;;;11.88;5.68;;;;;;;;;;4992386;28;25090;-64
2024/01/10 06:51:26;;;;;;;11.77;4.88;;;;;;;;;;4989468;28;25073;-65
2024/01/10 06:53:52;;;;;;;10.85;5.40;;;;;;;;;;4993958;28;25075;-66
2024/01/10 06:56:18;;;;;;;12.85;4.85;;;;;;;;;;5000092;28;25056;-61
2024/01/10 06:58:45;;;;;;;10.32;4.90;;;;;;;;;;4978616;28;25078;-64
2024/01/10 07:01:14;;;;;;;10.43;5.38;;;;;;;;;;4968311;28;25128;-64
2024/01/10 07:03:40;;;;;;;9.70;5.05;;;;;;;;;;4987434;28;25056;-65
2024/01/10 07:06:06;;;;;;;9.07;5.63;;;;;;;;;;4970365;28;25065;-62
2024/01/10 07:08:32;;;;;;;9.63;5.13;;;;;;;;;;4969923;28;25055;-63
2024/01/10 07:10:58;;;;;;;8.65;5.00;;;;;;;;;;4966271;28;25069;-62
2024/01/10 07:13:24;;;;;;;10.05;4.95;;;;;;;;;;4968486;28;25064;-64
2024/01/10 07:15:52;;;;;;;13.15;6.35;;;;;;;;;;4970575;28;25064;-61
2024/01/10 07:18:18;;;;;;;9.27;5.18;;;;;;;;;;4968912;28;25128;-64
2024/01/10 07:20:44;;;;;;;10.32;5.30;;;;;;;;;;4970281;28;25078;-63
2024/01/10 07:23:10;;;;;;;11.10;5.55;;;;;;;;;;4970874;28;25146;-64
2024/01/10 07:25:37;;;;;;;13.68;5.20;;;;;;;;;;4977126;28;25061;-64
2024/01/10 07:28:03;;;;;;;7.53;4.80;;;;;;;;;;4980596;28;25068;-64
2024/01/10 07:30:32;;;;;;;9.77;5.20;;;;;;;;;;4969096;28;25139;-62
2024/01/10 07:32:59;;;;;;;9.93;5.30;;;;;;;;;;4967673;28;25102;-61
2024/01/10 07:35:27;;;;;;;11.32;5.35;;;;;;;;;;4966634;28;25070;-67
2024/01/10 07:37:53;;;;;;;9.70;5.13;;;;;;;;;;4978469;28;25128;-62
2024/01/10 07:40:19;;;;;;;10.48;5.05;;;;;;;;;;4988413;28;25197;-63
2024/01/10 07:42:45;;;;;;;10.38;5.03;;;;;;;;;;4986785;28;25091;-63
2024/01/10 07:45:11;;;;;;;9.50;5.50;;;;;;;;;;5002077;28;25089;-64
2024/01/10 07:47:38;;;;;;;10.18;5.43;;;;;;;;;;4993156;28;25083;-65
2024/01/10 07:50:07;;;;;;;8.38;4.60;;;;;;;;;;4995991;28;25080;-64
2024/01/10 07:52:34;;;;;;;9.25;5.15;;;;;;;;;;4977286;28;25068;-62
2024/01/10 07:55:00;;;;;;;9.98;5.22;;;;;;;;;;4980620;28;25015;-64
2024/01/10 07:57:26;;;;;;;11.60;5.20;;;;;;;;;;4987182;28;25064;-62
2024/01/10 07:59:53;;;;;;;9.90;5.65;;;;;;;;;;4997135;28;25088;-64
2024/01/10 08:02:18;;;;;;;9.90;5.45;;;;;;;;;;4974485;28;25123;-64
2024/01/10 08:04:44;;;;;;;16.05;6.57;;;;;;;;;;4970281;28;25076;-62
2024/01/10 08:07:10;;;;;;;8.82;5.57;;;;;;;;;;4969749;28;25078;-63
2024/01/10 08:09:36;;;;;;;9.80;5.35;;;;;;;;;;4965934;28;25061;-63
2024/01/10 08:12:03;;;;;;;9.07;5.22;;;;;;;;;;4988119;28;25072;-62
2024/01/10 08:14:29;;;;;;;11.88;5.60;;;;;;;;;;4972210;28;25069;-62
2024/01/10 08:16:58;;;;;;;10.00;5.40;;;;;;;;;;4973558;28;25141;-63
2024/01/10 08:19:25;;;;;;;11.95;5.68;;;;;;;;;;4968843;28;25071;-62
2024/01/10 08:21:51;;;;;;;11.90;6.55;;;;;;;;;;4964593;28;25067;-62
2024/01/10 08:24:17;;;;;;;9.90;5.68;;;;;;;;;;4968146;28;25079;-62
2024/01/10 08:26:43;;;;;;;13.50;6.00;;;;;;;;;;4965332;28;25062;-62
2024/01/10 08:29:09;;;;;;;11.75;5.93;;;;;;;;;;4969175;28;25082;-62
2024/01/10 08:31:35;;;;;;;10.55;5.65;;;;;;;;;;4975341;28;25071;-64
2024/01/10 08:34:01;;;;;;;13.27;6.90;;;;;;;;;;4985297;28;25168;-63
2024/01/10 08:36:27;;;;;;;12.50;6.97;;;;;;;;;;4987874;28;25064;-65
2024/01/10 08:38:53;;;;;;;14.02;6.60;;;;;;;;;;4986380;28;25093;-62
2024/01/10 08:41:19;;;;;;;12.00;6.28;;;;;;;;;;4972246;28;24788;-64
2024/01/10 08:43:46;;;;;;;9.25;5.93;;;;;;;;;;4969064;28;25060;-63
2024/01/10 08:46:12;;;;;;;13.57;6.72;;;;;;;;;;4966239;28;25063;-64
2024/01/10 08:48:38;;;;;;;8.48;5.60;;;;;;;;;;4969150;28;25073;-63
2024/01/10 08:51:04;;;;;;;13.27;6.80;;;;;;;;;;4969461;28;25092;-65
2024/01/10 08:53:30;;;;;;;10.48;6.15;;;;;;;;;;4987191;28;25064;-65
2024/01/10 08:55:56;;;;;;;14.48;6.68;;;;;;;;;;4988088;28;25149;-63
2024/01/10 08:58:22;;;;;;;11.35;6.68;;;;;;;;;;4987766;28;25075;-63
2024/01/10 09:00:48;;;;;;;10.63;6.28;;;;;;;;;;4989667;28;25085;-61
2024/01/10 09:03:14;;;;;;;13.93;7.40;;;;;;;;;;4985512;28;25051;-65
2024/01/10 09:05:40;;;;;;;14.45;6.65;;;;;;;;;;4985281;28;25053;-64
2024/01/10 09:08:06;;;;;;;11.32;6.47;;;;;;;;;;4988780;28;25069;-62
2024/01/10 09:10:32;;;;;;;12.00;6.97;;;;;;;;;;4991197;28;25072;-63
2024/01/10 09:12:59;;;;;;;11.25;6.07;;;;;;;;;;4990328;28;25121;-61
2024/01/10 09:15:25;;;;;;;13.68;6.95;;;;;;;;;;4993610;28;25067;-64
2024/01/10 09:17:52;;;;;;;14.25;6.82;;;;;;;;;;4991252;28;25100;-62
2024/01/10 09:20:18;;;;;;;11.40;7.18;;;;;;;;;;4990848;28;25149;-64
2024/01/10 09:22:44;;;;;;;12.52;6.57;;;;;;;;;;4994580;28;25115;-62
2024/01/10 09:25:12;;;;;;;11.20;6.30;;;;;;;;;;4988929;28;25062;-65
2024/01/10 09:27:43;;;;;;;11.52;6.80;;;;;;;;;;4994025;28;25158;-63
2024/01/10 09:30:09;;;;;;;13.43;7.47;;;;;;;;;;4994654;28;25141;-64
2024/01/10 09:32:36;;;;;;;15.07;6.88;;;;;;;;;;4992699;28;25061;-65
2024/01/10 09:35:02;;;;;;;14.63;7.63;;;;;;;;;;4988062;28;25083;-66
2024/01/10 09:37:28;;;;;;;14.57;7.75;;;;;;;;;;4990007;28;25077;-65
2024/01/10 09:39:54;;;;;;;13.88;7.43;;;;;;;;;;4990810;28;25083;-62
2024/01/10 09:42:25;;;;;;;15.43;6.85;;;;;;;;;;4990249;28;25136;-62
2024/01/10 09:44:52;;;;;;;12.48;7.03;;;;;;;;;;4992293;28;25112;-61
2024/01/10 09:47:18;;;;;;;14.15;7.68;;;;;;;;;;4987459;28;25064;-67
2024/01/10 09:49:46;;;;;;;19.40;7.97;;;;;;;;;;4992759;28;25061;-62
2024/01/10 09:52:17;;;;;;;15.85;8.25;;;;;;;;;;4991880;28;25147;-67
2024/01/10 09:54:46;;;;;;;11.90;6.68;;;;;;;;;;4993075;28;25071;-62
2024/01/10 09:57:13;;;;;;;14.18;7.68;;;;;;;;;;4968327;28;25094;-65
2024/01/10 09:59:38;;;;;;;15.50;8.18;;;;;;;;;;4991121;28;25060;-64
2024/01/10 10:02:04;;;;;;;16.88;7.80;;;;;;;;;;4979164;28;25069;-65
2024/01/10 10:04:31;;;;;;;12.93;7.32;;;;;;;;;;4967110;28;25049;-64
2024/01/10 10:07:01;;;;;;;14.48;7.10;;;;;;;;;;4968670;28;25164;-62
2024/01/10 10:09:30;;;;;;;19.55;8.80;;;;;;;;;;4969873;28;25095;-63
2024/01/10 10:11:57;;;;;;;17.45;8.32;;;;;;;;;;4989972;28;25058;-63
2024/01/10 10:14:25;;;;;;;14.43;8.32;;;;;;;;;;4972800;28;25081;-63
2024/01/10 10:16:51;;;;;;;16.98;8.82;;;;;;;;;;4963350;28;25060;-64
2024/01/10 10:19:24;;;;;;;13.68;8.40;;;;;;;;;;4960014;28;25070;-64
2024/01/10 10:21:51;;;;;;;12.48;7.32;;;;;;;;;;4965269;28;25062;-64
2024/01/10 10:24:17;;;;;;;18.42;8.82;;;;;;;;;;4967127;28;25098;-62
2024/01/10 10:26:43;;;;;;;16.73;8.65;;;;;;;;;;4966643;28;25101;-63
2024/01/10 10:29:09;;;;;;;15.80;8.13;;;;;;;;;;4967622;28;25084;-62
2024/01/10 10:31:35;;;;;;;16.80;7.95;;;;;;;;;;4965790;28;25053;-62
2024/01/10 10:34:02;;;;;;;15.63;8.13;;;;;;;;;;4967416;28;25068;-63
2024/01/10 10:36:28;;;;;;;15.27;8.57;;;;;;;;;;4996000;28;25139;-64
2024/01/10 10:38:54;;;;;;;18.98;8.77;;;;;;;;;;4989089;28;25069;-64
2024/01/10 10:41:21;;;;;;;19.98;9.07;;;;;;;;;;4990741;28;25084;-63
2024/01/10 10:43:47;;;;;;;14.75;8.80;;;;;;;;;;4986769;28;25067;-61
2024/01/10 10:46:14;;;;;;;13.68;8.50;;;;;;;;;;4990875;28;25202;-62
2024/01/10 10:48:40;;;;;;;16.33;9.18;;;;;;;;;;4987818;28;25098;-66
2024/01/10 10:51:11;;;;;;;14.50;7.55;;;;;;;;;;4986056;28;25090;-63
2024/01/10 10:53:38;;;;;;;18.45;8.90;;;;;;;;;;4985330;28;25082;-65
2024/01/10 10:56:05;;;;;;;18.60;9.40;;;;;;;;;;4990329;28;25071;-63
2024/01/10 10:58:38;;;;;;;17.30;9.00;;;;;;;;;;4987186;28;25071;-62
2024/01/10 11:01:08;;;;;;;18.50;9.02;;;;;;;;;;4990419;28;25078;-65
2024/01/10 11:03:36;;;;;;;17.92;9.30;;;;;;;;;;4989336;28;25048;-62
2024/01/10 11:06:03;;;;;;;17.33;9.40;;;;;;;;;;4970599;28;25061;-61
2024/01/10 11:08:31;;;;;;;18.42;9.70;;;;;;;;;;4967450;28;25111;-64
2024/01/10 11:10:57;;;;;;;16.35;9.57;;;;;;;;;;4960838;28;25048;-61
2024/01/10 11:13:45;;;;;;;16.38;9.50;;;;;;;;;;4966466;28;25044;-61
2024/01/10 11:16:30;;;;;;;17.95;9.88;;;;;;;;;;4963429;28;25058;-65
2024/01/10 11:19:02;;;;;;;16.67;9.18;;;;;;;;;;4964930;28;25065;-62
2024/01/10 11:21:37;;;;;;;19.77;10.25;;;;;;;;;;4966670;28;25111;-61
2024/01/10 11:24:04;;;;;;;20.00;10.10;;;;;;;;;;4971361;28;25163;-61
2024/01/10 11:26:30;;;;;;;17.60;9.25;;;;;;;;;;4962578;28;25048;-62
2024/01/10 11:28:57;;;;;;;14.02;9.82;;;;;;;;;;4965439;28;25084;-62
2024/01/10 11:31:30;;;;;;;19.50;10.23;;;;;;;;;;4966465;28;25066;-62
2024/01/10 11:33:57;;;;;;;17.38;9.35;;;;;;;;;;4970101;28;25064;-62
2024/01/10 11:36:26;;;;;;;17.27;9.80;;;;;;;;;;4990380;28;25060;-65
2024/01/10 11:38:59;;;;;;;17.95;9.80;;;;;;;;;;4989632;28;25180;-62
2024/01/10 11:41:26;;;;;;;20.63;10.50;;;;;;;;;;4985597;28;25124;-62
2024/01/10 11:44:22;;;;;;;18.95;8.75;;;;;;;;;;4983283;28;25071;-63
2024/01/10 11:46:49;;;;;;;16.45;9.68;;;;;;;;;;4989298;28;25055;-62
2024/01/10 11:49:16;;;;;;;18.52;10.07;;;;;;;;;;4985383;28;25076;-64
2024/01/10 11:51:54;;;;;;;23.00;10.85;;;;;;;;;;4989589;28;25100;-62
2024/01/10 11:54:36;;;;;;;18.77;10.23;;;;;;;;;;4963527;28;25065;-62
2024/01/10 11:57:02;;;;;;;18.15;9.45;;;;;;;;;;4960182;28;25151;-63
2024/01/10 11:59:30;;;;;;;16.95;10.02;;;;;;;;;;4982818;28;25116;-63
2024/01/10 12:01:56;;;;;;;17.38;10.30;;;;;;;;;;4971735;28;25074;-63
2024/01/10 12:04:22;;;;;;;18.58;10.30;;;;;;;;;;4967366;28;25065;-61
2024/01/10 12:06:48;;;;;;;20.63;10.55;;;;;;;;;;4962417;28;25093;-64
2024/01/10 12:09:16;;;;;;;19.33;10.52;;;;;;;;;;4967647;28;25048;-61
2024/01/10 12:11:42;;;;;;;16.42;8.40;;;;;;;;;;4966882;28;25138;-67
2024/01/10 12:14:09;;;;;;;17.63;9.55;;;;;;;;;;4966691;28;25149;-65
2024/01/10 12:16:35;;;;;;;21.50;11.63;;;;;;;;;;4966064;28;25074;-63
2024/01/10 12:19:01;;;;;;;16.15;10.48;;;;;;;;;;4965602;28;25089;-62
2024/01/10 12:21:27;;;;;;;16.02;9.95;;;;;;;;;;4966416;28;25063;-63
2024/01/10 12:23:53;;;;;;;21.80;9.13;;;;;;;;;;4985923;28;25150;-64
2024/01/10 12:26:19;;;;;;;17.88;9.75;;;;;;;;;;4973552;28;25065;-62
2024/01/10 12:28:58;;;;;;;16.58;10.02;;;;;;;;;;4965452;28;25073;-62
2024/01/10 12:31:27;;;;;;;16.48;9.18;;;;;;;;;;4962072;28;25131;-62
2024/01/10 12:33:53;;;;;;;21.30;10.57;;;;;;;;;;4968729;28;25096;-62
2024/01/10 12:36:19;;;;;;;15.45;9.10;;;;;;;;;;4984772;28;25157;-62
2024/01/10 12:38:45;;;;;;;18.67;11.05;;;;;;;;;;4988277;28;25073;-62
2024/01/10 12:41:12;;;;;;;22.58;10.45;;;;;;;;;;4982563;28;25043;-63
2024/01/10 12:43:38;;;;;;;20.55;10.80;;;;;;;;;;4987525;28;25075;-62
2024/01/10 12:46:04;;;;;;;16.70;10.30;;;;;;;;;;4985572;28;25073;-63
2024/01/10 12:48:31;;;;;;;20.58;10.43;;;;;;;;;;4985987;28;25080;-63
2024/01/10 12:51:00;;;;;;;17.38;9.65;;;;;;;;;;4982286;28;25121;-62
2024/01/10 12:53:26;;;;;;;21.08;9.80;;;;;;;;;;4984611;28;25087;-65
2024/01/10 12:55:52;;;;;;;19.77;9.02;;;;;;;;;;4986676;28;25058;-65
2024/01/10 12:58:18;;;;;;;23.25;10.05;;;;;;;;;;4979254;28;25078;-65
2024/01/10 13:00:45;;;;;;;18.08;11.05;;;;;;;;;;4984843;28;25087;-63
2024/01/10 13:03:12;;;;;;;19.08;9.38;;;;;;;;;;4981969;28;25080;-61
2024/01/10 13:05:38;;;;;;;18.35;9.43;;;;;;;;;;4984436;28;25101;-62
2024/01/10 13:08:05;;;;;;;21.10;9.82;;;;;;;;;;4979940;28;25052;-65
2024/01/10 13:10:31;;;;;;;18.67;10.18;;;;;;;;;;4983646;28;25150;-61
2024/01/10 13:12:57;;;;;;;18.02;11.18;;;;;;;;;;4979187;28;25108;-64
2024/01/10 13:15:23;;;;;;;20.58;10.20;;;;;;;;;;4981510;28;25110;-62
2024/01/10 13:17:49;;;;;;;17.35;9.80;;;;;;;;;;4983153;28;25173;-64
2024/01/10 13:20:15;;;;;;;15.57;8.77;;;;;;;;;;4984875;28;25059;-62
2024/01/10 13:22:41;;;;;;;17.30;9.63;;;;;;;;;;4985105;28;25161;-65
2024/01/10 13:25:07;;;;;;;21.52;10.27;;;;;;;;;;4985411;28;25061;-61
2024/01/10 13:27:33;;;;;;;17.20;9.73;;;;;;;;;;4985889;28;25127;-65
2024/01/10 13:29:59;;;;;;;20.52;10.57;;;;;;;;;;4987855;28;25076;-63
2024/01/10 13:32:25;;;;;;;18.25;9.10;;;;;;;;;;4988393;28;25066;-63
2024/01/10 13:34:51;;;;;;;18.60;9.18;;;;;;;;;;4984779;28;25093;-64
2024/01/10 13:37:17;;;;;;;18.02;10.38;;;;;;;;;;4989972;28;25151;-61
2024/01/10 13:39:43;;;;;;;17.70;9.35;;;;;;;;;;4988423;28;25159;-61
2024/01/10 13:42:12;;;;;;;22.70;9.75;;;;;;;;;;4988770;28;25153;-62
2024/01/10 13:44:38;;;;;;;19.55;10.55;;;;;;;;;;4987866;28;25058;-61
2024/01/10 13:47:05;;;;;;;21.83;9.98;;;;;;;;;;4985939;28;25051;-62
2024/01/10 13:49:31;;;;;;;19.80;10.30;;;;;;;;;;4984343;28;25059;-63
2024/01/10 13:51:57;;;;;;;19.75;10.82;;;;;;;;;;4987736;28;25064;-65
2024/01/10 13:54:23;;;;;;;21.25;10.50;;;;;;;;;;4989477;28;25054;-62
2024/01/10 13:56:49;;;;;;;18.85;10.45;;;;;;;;;;4986263;28;25057;-64
2024/01/10 13:59:14;;;;;;;18.38;9.85;;;;;;;;;;4973960;28;25107;-63
2024/01/10 14:01:41;;;;;;;17.42;9.50;;;;;;;;;;4965584;28;25064;-66
2024/01/10 14:04:06;;;;;;;17.38;10.32;;;;;;;;;;4969855;28;25156;-61
2024/01/10 14:06:33;;;;;;;22.98;11.15;;;;;;;;;;4968021;28;25073;-63
2024/01/10 14:08:59;;;;;;;18.85;10.93;;;;;;;;;;4970197;28;25075;-62
2024/01/10 14:11:27;;;;;;;16.65;10.20;;;;;;;;;;4981583;28;25125;-63
2024/01/10 14:13:54;;;;;;;20.98;10.57;;;;;;;;;;4990117;28;25161;-65
2024/01/10 14:16:20;;;;;;;19.50;10.10;;;;;;;;;;4990354;28;25150;-62
2024/01/10 14:18:47;;;;;;;18.25;9.38;;;;;;;;;;4990331;28;25065;-64
2024/01/10 14:21:13;;;;;;;20.58;10.10;;;;;;;;;;4988122;28;25092;-60
2024/01/10 14:23:39;;;;;;;19.35;11.00;;;;;;;;;;4987945;28;25097;-62
2024/01/10 14:26:05;;;;;;;21.58;9.55;;;;;;;;;;4976923;28;25072;-62
2024/01/10 14:28:32;;;;;;;19.40;9.70;;;;;;;;;;4988198;28;25082;-63
2024/01/10 14:31:00;;;;;;;18.25;9.75;;;;;;;;;;4987165;28;25095;-63